Haleakala National Park, HI

11:39 AM HST on August 21, 2014 (GMT -1000)
Lanai City | Change Station
CLOSE
Current Station
Airport
Location: Lanai City,
Elevation: 1309 ft
Nearby Weather Stations

Elev 1309 ft 20.79 °N, 156.95 °W | Updated 43 minutes ago

Clear
Clear
82 °F
Feels Like 85 °F
N
10
Wind Variable Wind from NNE

Today
High -- | Low -- °F
--% Chance of Precip.
Yesterday
High -- | Low -- °F
Precip. -- in
6:05 AM 6:49 PM
Waning Crescent, 12% visible
Pressure 30.03 in
Visibility 10.0 miles
Clouds Clear
Heat Index 85 °F
Dew Point 69 °F
Humidity 65%
Rainfall 0.00 in
Snow Depth Not available.
UV 11 out of 12
Pollen Not available.
Air Quality Not available.
Flu Activity Not available.
METAR PHNY 212056Z AUTO 03009KT 10SM CLR 28/21 A3010 RMK AO2 TSNO 50003 T02770205 SLP168 $

More Conditions Fewer Conditions

Pressure 30.03 in
Visibility 10.0 miles
Clouds Clear
Heat Index 85 °F
Dew Point 69 °F
Humidity 65%
Rainfall 0.00 in
Snow Depth Not available.
UV 11 out of 12
Pollen Not available.
Air Quality Not available.
Flu Activity Not available.
METAR PHNY 212056Z AUTO 03009KT 10SM CLR 28/21 A3010 RMK AO2 TSNO 50003 T02770205 SLP168 $

More Conditions Fewer Conditions

10-Day Weather Forecast

Almanac

Astronomy

Aug. 21, 2014 Rise Set
Actual Time 6:05 AM HST 6:49 PM HST
Civil Twilight 5:42 AM HST 7:12 PM HST
Nautical Twilight 5:15 AM HST 7:38 PM HST
Astronomical Twilight 4:48 AM HST 8:05 PM HST
Moon 2:57 AM HST 4:15 PM HST
Length of Visible Light 13h 29m
Length of Day
12h 43m
Tomorrow will be 1m 5s shorter.
Waning Crescent, 12% of the Moon is Illuminated
Today
Waning Crescent
Aug 25
New
Sep 2
First Quarter
Sep 8
Full
Sep 15
Last Quarter

Today's Extremes

State Highs State Lows

Community

WunderPhotos

Upload Photos

1,746,021 photos uploaded!

WunderBlogs® & News

Nearby

Snow Depth

Station Depth Elevation
No new snow has been reported.

Earthquake Activity

City Distance Mag. Time & Date
No recent earthquake activity has been reported nearby.
Minimum magnitude displayed is 2.5.

Coastal Water Temperatures

Place Temperature
No Stations Reporting

Nearby Weather Stations